Wetterdaten: Woche 23.05.11 - 29.05.11 (KW21)
Datum Zeit Temperatur Luftfeuchte Luftdruck Niederschlag Windrichtung Sonnenschein Solar Wind
23.05.2011 00:00 14,3 C 93 % 1021,2 hPa 0,0 l/m N 0,00 h 0 W/m 0,4 km/h (0 Bft)
23.05.2011 01:00 14,0 C 93 % 1021,5 hPa 0,0 l/m N 0,00 h 0 W/m 2,7 km/h (1 Bft)
23.05.2011 02:00 13,5 C 94 % 1021,8 hPa 0,0 l/m N-NW 0,00 h 0 W/m 3,7 km/h (1 Bft)
23.05.2011 03:00 13,8 C 91 % 1022,6 hPa 0,0 l/m N 0,00 h 0 W/m 2,3 km/h (1 Bft)
23.05.2011 04:00 12,5 C 96 % 1022,9 hPa 0,0 l/m N 0,00 h 0 W/m 0,0 km/h (0 Bft)
23.05.2011 05:00 12,2 C 95 % 1023,4 hPa 0,0 l/m N 0,00 h 7 W/m 0,0 km/h (0 Bft)
23.05.2011 06:00 12,9 C 86 % 1023,7 hPa 0,0 l/m N 0,00 h 24 W/m 4,0 km/h (1 Bft)
23.05.2011 07:00 13,3 C 84 % 1024,1 hPa 0,0 l/m N 0,00 h 61 W/m 5,5 km/h (1 Bft)
23.05.2011 08:00 13,7 C 77 % 1024,7 hPa 0,0 l/m NO 0,00 h 83 W/m 6,5 km/h (2 Bft)
23.05.2011 09:00 13,9 C 74 % 1024,8 hPa 0,0 l/m NO 0,00 h 114 W/m 4,7 km/h (1 Bft)
23.05.2011 10:00 15,5 C 71 % 1024,8 hPa 0,0 l/m O-NO 0,58 h 492 W/m 5,5 km/h (1 Bft)
23.05.2011 11:00 17,7 C 55 % 1024,5 hPa 0,0 l/m N-NO 1,00 h 720 W/m 8,0 km/h (2 Bft)
23.05.2011 12:00 19,2 C 54 % 1024,2 hPa 0,0 l/m O-SO 0,92 h 864 W/m 7,4 km/h (2 Bft)
23.05.2011 13:00 20,3 C 54 % 1023,7 hPa 0,0 l/m NO 1,00 h 940 W/m 9,4 km/h (2 Bft)
23.05.2011 14:00 20,6 C 55 % 1023,1 hPa 0,0 l/m N-NO 0,83 h 741 W/m 9,1 km/h (2 Bft)
23.05.2011 15:00 21,9 C 53 % 1022,4 hPa 0,0 l/m O-SO 1,00 h 819 W/m 9,8 km/h (2 Bft)
23.05.2011 16:00 22,8 C 50 % 1021,9 hPa 0,0 l/m O-SO 1,00 h 715 W/m 8,8 km/h (2 Bft)
23.05.2011 17:00 23,1 C 49 % 1021,2 hPa 0,0 l/m S-SO 1,00 h 550 W/m 7,0 km/h (2 Bft)
23.05.2011 18:00 22,9 C 50 % 1020,8 hPa 0,0 l/m SO 1,00 h 386 W/m 6,4 km/h (2 Bft)
23.05.2011 19:00 22,1 C 51 % 1020,6 hPa 0,0 l/m O 0,92 h 181 W/m 6,0 km/h (2 Bft)
23.05.2011 20:00 19,7 C 67 % 1020,5 hPa 0,0 l/m N 0,08 h 31 W/m 1,2 km/h (1 Bft)
23.05.2011 21:00 16,5 C 79 % 1020,5 hPa 0,0 l/m N 0,00 h 5 W/m 0,1 km/h (0 Bft)
23.05.2011 22:00 15,0 C 84 % 1020,4 hPa 0,0 l/m O 0,00 h 0 W/m 0,9 km/h (0 Bft)
23.05.2011 23:00 14,0 C 88 % 1020,3 hPa 0,0 l/m N 0,00 h 0 W/m 0,3 km/h (0 Bft)
24.05.2011 00:00 13,1 C 90 % 1020,4 hPa 0,0 l/m N 0,00 h 0 W/m 0,0 km/h (0 Bft)
24.05.2011 01:00 12,6 C 91 % 1020,4 hPa 0,0 l/m N 0,00 h 0 W/m 0,0 km/h (0 Bft)
24.05.2011 02:00 11,6 C 94 % 1020,2 hPa 0,0 l/m N 0,00 h 0 W/m 0,0 km/h (0 Bft)
24.05.2011 03:00 10,8 C 95 % 1019,8 hPa 0,0 l/m N 0,00 h 0 W/m 0,0 km/h (0 Bft)
24.05.2011 04:00 10,1 C 96 % 1019,8 hPa 0,0 l/m N 0,00 h 0 W/m 0,0 km/h (0 Bft)
24.05.2011 05:00 9,5 C 96 % 1020,0 hPa 0,0 l/m N 0,00 h 8 W/m 0,0 km/h (0 Bft)
24.05.2011 06:00 9,5 C 96 % 1020,4 hPa 0,0 l/m N 0,42 h 68 W/m 0,0 km/h (0 Bft)
24.05.2011 07:00 11,8 C 92 % 1020,8 hPa 0,0 l/m N 1,00 h 228 W/m 0,0 km/h (0 Bft)
24.05.2011 08:00 15,2 C 89 % 1021,0 hPa 0,0 l/m SW 1,00 h 401 W/m 1,5 km/h (1 Bft)
24.05.2011 09:00 18,8 C 80 % 1021,0 hPa 0,0 l/m S-SO 1,00 h 572 W/m 9,0 km/h (2 Bft)
24.05.2011 10:00 20,9 C 73 % 1020,7 hPa 0,0 l/m S-SW 1,00 h 714 W/m 12,4 km/h (3 Bft)
24.05.2011 11:00 22,5 C 65 % 1020,5 hPa 0,0 l/m S-SW 0,92 h 776 W/m 14,0 km/h (3 Bft)
24.05.2011 12:00 23,7 C 53 % 1020,3 hPa 0,0 l/m S-SW 1,00 h 901 W/m 18,8 km/h (3 Bft)
24.05.2011 13:00 24,6 C 45 % 1020,0 hPa 0,0 l/m W-NW 0,83 h 788 W/m 17,0 km/h (3 Bft)
24.05.2011 14:00 24,8 C 47 % 1019,7 hPa 0,0 l/m W 0,67 h 618 W/m 14,5 km/h (3 Bft)
24.05.2011 15:00 25,8 C 43 % 1019,6 hPa 0,0 l/m SW 0,83 h 738 W/m 17,8 km/h (3 Bft)
24.05.2011 16:00 23,7 C 47 % 1019,4 hPa 0,0 l/m W-NW 0,00 h 103 W/m 8,6 km/h (2 Bft)
24.05.2011 17:00 23,7 C 50 % 1019,4 hPa 0,0 l/m W 0,25 h 263 W/m 4,4 km/h (1 Bft)
24.05.2011 18:00 23,6 C 45 % 1019,6 hPa 0,0 l/m N 0,42 h 215 W/m 16,5 km/h (3 Bft)
24.05.2011 19:00 21,5 C 50 % 1020,2 hPa 0,0 l/m N 0,25 h 116 W/m 17,3 km/h (3 Bft)
24.05.2011 20:00 19,6 C 52 % 1020,9 hPa 0,0 l/m N-NO 0,08 h 24 W/m 16,5 km/h (3 Bft)
24.05.2011 21:00 17,8 C 52 % 1022,1 hPa 0,0 l/m N 0,00 h 0 W/m 13,3 km/h (3 Bft)
24.05.2011 22:00 16,4 C 57 % 1023,1 hPa 0,0 l/m N 0,00 h 0 W/m 8,2 km/h (2 Bft)
24.05.2011 23:00 15,3 C 65 % 1024,0 hPa 0,0 l/m N-NO 0,00 h 0 W/m 4,3 km/h (1 Bft)
25.05.2011 00:00 14,1 C 70 % 1024,4 hPa 0,0 l/m N-NO 0,00 h 0 W/m 3,6 km/h (1 Bft)
25.05.2011 01:00 13,0 C 75 % 1024,5 hPa 0,0 l/m N 0,00 h 0 W/m 2,3 km/h (1 Bft)
25.05.2011 02:00 12,6 C 70 % 1024,7 hPa 0,0 l/m N 0,00 h 0 W/m 6,7 km/h (2 Bft)
25.05.2011 03:00 11,8 C 66 % 1024,8 hPa 0,0 l/m N-NO 0,00 h 0 W/m 7,6 km/h (2 Bft)
25.05.2011 04:00 10,5 C 65 % 1024,7 hPa 0,0 l/m N 0,00 h 0 W/m 6,1 km/h (2 Bft)
25.05.2011 05:00 9,3 C 70 % 1024,7 hPa 0,0 l/m N 0,00 h 7 W/m 5,1 km/h (1 Bft)
25.05.2011 06:00 9,5 C 68 % 1025,0 hPa 0,0 l/m N-NO 0,17 h 56 W/m 6,3 km/h (2 Bft)
25.05.2011 07:00 11,3 C 60 % 1025,1 hPa 0,0 l/m N-NO 1,00 h 218 W/m 9,5 km/h (2 Bft)
25.05.2011 08:00 12,9 C 55 % 1025,0 hPa 0,0 l/m O-NO 1,00 h 398 W/m 13,2 km/h (3 Bft)
25.05.2011 09:00 14,6 C 51 % 1024,8 hPa 0,0 l/m O-NO 1,00 h 554 W/m 14,5 km/h (3 Bft)
25.05.2011 10:00 16,6 C 43 % 1024,4 hPa 0,0 l/m O-SO 1,00 h 696 W/m 19,0 km/h (3 Bft)
25.05.2011 11:00 17,9 C 42 % 1024,0 hPa 0,0 l/m O 1,00 h 838 W/m 20,2 km/h (4 Bft)
25.05.2011 12:00 19,2 C 42 % 1023,4 hPa 0,0 l/m O-NO 1,00 h 904 W/m 17,2 km/h (3 Bft)
25.05.2011 13:00 20,4 C 42 % 1022,5 hPa 0,0 l/m NO 1,00 h 922 W/m 17,7 km/h (3 Bft)
25.05.2011 14:00 21,3 C 41 % 1021,7 hPa 0,0 l/m O 1,00 h 892 W/m 17,3 km/h (3 Bft)
25.05.2011 15:00 22,0 C 41 % 1020,9 hPa 0,0 l/m O-NO 1,00 h 819 W/m 19,3 km/h (3 Bft)
25.05.2011 16:00 22,6 C 40 % 1020,2 hPa 0,0 l/m O 1,00 h 707 W/m 17,2 km/h (3 Bft)
25.05.2011 17:00 22,5 C 41 % 1019,5 hPa 0,0 l/m O 1,00 h 558 W/m 17,0 km/h (3 Bft)
25.05.2011 18:00 22,3 C 43 % 1018,8 hPa 0,0 l/m O-NO 1,00 h 387 W/m 16,9 km/h (3 Bft)
25.05.2011 19:00 21,3 C 47 % 1018,4 hPa 0,0 l/m O-SO 1,00 h 194 W/m 14,4 km/h (3 Bft)
25.05.2011 20:00 19,6 C 53 % 1018,0 hPa 0,0 l/m O 0,08 h 27 W/m 9,1 km/h (2 Bft)
25.05.2011 21:00 16,7 C 65 % 1017,9 hPa 0,0 l/m N 0,00 h 5 W/m 1,5 km/h (1 Bft)
25.05.2011 22:00 14,8 C 73 % 1017,7 hPa 0,0 l/m N 0,00 h 0 W/m 2,0 km/h (1 Bft)
25.05.2011 23:00 14,3 C 72 % 1017,3 hPa 0,0 l/m N 0,00 h 0 W/m 4,5 km/h (1 Bft)
26.05.2011 00:00 13,7 C 74 % 1016,9 hPa 0,0 l/m N 0,00 h 0 W/m 2,1 km/h (1 Bft)
26.05.2011 01:00 12,7 C 78 % 1016,3 hPa 0,0 l/m N 0,00 h 0 W/m 0,9 km/h (0 Bft)
26.05.2011 02:00 11,8 C 82 % 1015,7 hPa 0,0 l/m N 0,00 h 0 W/m 0,8 km/h (0 Bft)
26.05.2011 03:00 10,9 C 87 % 1015,1 hPa 0,0 l/m N 0,00 h 0 W/m 0,0 km/h (0 Bft)
26.05.2011 04:00 10,2 C 89 % 1014,7 hPa 0,0 l/m N 0,00 h 0 W/m 0,0 km/h (0 Bft)
26.05.2011 05:00 9,8 C 91 % 1014,4 hPa 0,0 l/m N 0,00 h 8 W/m 0,0 km/h (0 Bft)
26.05.2011 06:00 9,7 C 91 % 1014,4 hPa 0,0 l/m N 0,08 h 55 W/m 0,1 km/h (0 Bft)
26.05.2011 07:00 12,4 C 84 % 1014,4 hPa 0,0 l/m N 0,92 h 213 W/m 2,0 km/h (1 Bft)
26.05.2011 08:00 15,6 C 80 % 1014,3 hPa 0,0 l/m SW 1,00 h 372 W/m 2,7 km/h (1 Bft)
26.05.2011 09:00 19,5 C 72 % 1013,7 hPa 0,0 l/m S-SW 1,00 h 566 W/m 11,4 km/h (2 Bft)
26.05.2011 10:00 22,1 C 59 % 1013,2 hPa 0,0 l/m SW 0,92 h 535 W/m 21,5 km/h (4 Bft)
26.05.2011 11:00 23,0 C 52 % 1012,8 hPa 0,0 l/m SW 0,75 h 568 W/m 31,4 km/h (5 Bft)
26.05.2011 12:00 24,4 C 49 % 1012,3 hPa 0,0 l/m W-SW 0,83 h 750 W/m 27,5 km/h (4 Bft)
26.05.2011 13:00 24,5 C 49 % 1011,7 hPa 0,0 l/m W-SW 0,75 h 762 W/m 26,4 km/h (4 Bft)
26.05.2011 14:00 26,5 C 42 % 1010,9 hPa 0,0 l/m W-SW 1,00 h 905 W/m 29,9 km/h (5 Bft)
26.05.2011 15:00 27,4 C 40 % 1010,0 hPa 0,0 l/m W-SW 1,00 h 829 W/m 23,7 km/h (4 Bft)
26.05.2011 16:00 26,2 C 43 % 1009,3 hPa 0,0 l/m W 0,17 h 221 W/m 20,4 km/h (4 Bft)
26.05.2011 17:00 25,6 C 47 % 1009,5 hPa 0,0 l/m W-SW 0,25 h 272 W/m 20,0 km/h (4 Bft)
26.05.2011 18:00 24,3 C 47 % 1009,9 hPa 0,0 l/m W-NW 0,08 h 148 W/m 16,5 km/h (3 Bft)
26.05.2011 19:00 22,6 C 51 % 1010,2 hPa 0,0 l/m W-NW 0,17 h 82 W/m 13,6 km/h (3 Bft)
26.05.2011 20:00 21,0 C 52 % 1011,1 hPa 0,0 l/m W-SW 0,00 h 14 W/m 18,8 km/h (3 Bft)
26.05.2011 21:00 18,2 C 68 % 1011,8 hPa 0,0 l/m SW 0,00 h 5 W/m 17,6 km/h (3 Bft)
26.05.2011 22:00 16,0 C 82 % 1012,2 hPa 0,0 l/m SW 0,00 h 0 W/m 12,2 km/h (2 Bft)
26.05.2011 23:00 15,7 C 87 % 1012,2 hPa 0,0 l/m SW 0,00 h 0 W/m 5,7 km/h (1 Bft)
27.05.2011 00:00 15,6 C 88 % 1012,3 hPa 0,0 l/m SW 0,00 h 0 W/m 8,7 km/h (2 Bft)
27.05.2011 01:00 15,2 C 84 % 1012,3 hPa 0,0 l/m W 0,00 h 0 W/m 5,7 km/h (1 Bft)
27.05.2011 02:00 13,5 C 89 % 1012,6 hPa 1,8 l/m SW 0,00 h 0 W/m 3,5 km/h (1 Bft)
27.05.2011 03:00 12,8 C 95 % 1012,8 hPa 1,6 l/m SW 0,00 h 0 W/m 5,2 km/h (1 Bft)
27.05.2011 04:00 12,4 C 95 % 1012,6 hPa 0,0 l/m SW 0,00 h 0 W/m 4,1 km/h (1 Bft)
27.05.2011 05:00 12,4 C 95 % 1012,5 hPa 0,0 l/m N 0,00 h 5 W/m 0,8 km/h (0 Bft)
27.05.2011 06:00 12,6 C 96 % 1012,4 hPa 0,0 l/m S 0,00 h 12 W/m 3,5 km/h (1 Bft)
27.05.2011 07:00 12,7 C 96 % 1012,4 hPa 0,0 l/m SW 0,00 h 41 W/m 7,8 km/h (2 Bft)
27.05.2011 08:00 13,1 C 95 % 1012,4 hPa 0,0 l/m SW 0,00 h 90 W/m 10,1 km/h (2 Bft)
27.05.2011 09:00 13,6 C 94 % 1012,2 hPa 1,4 l/m SW 0,08 h 78 W/m 9,5 km/h (2 Bft)
27.05.2011 10:00 13,0 C 94 % 1011,9 hPa 4,4 l/m W 0,00 h 41 W/m 8,4 km/h (2 Bft)
27.05.2011 11:00 11,1 C 93 % 1012,7 hPa 2,8 l/m N-NW 0,00 h 67 W/m 7,9 km/h (2 Bft)
27.05.2011 12:00 10,7 C 92 % 1013,1 hPa 1,0 l/m N 0,00 h 76 W/m 4,4 km/h (1 Bft)
27.05.2011 13:00 10,9 C 93 % 1013,5 hPa 1,0 l/m NW 0,00 h 116 W/m 4,8 km/h (1 Bft)
27.05.2011 14:00 10,8 C 92 % 1013,8 hPa 0,4 l/m W-SW 0,00 h 147 W/m 7,8 km/h (2 Bft)
27.05.2011 15:00 10,8 C 90 % 1014,3 hPa 0,2 l/m W-SW 0,00 h 155 W/m 14,8 km/h (3 Bft)
27.05.2011 16:00 10,7 C 91 % 1014,5 hPa 0,0 l/m SW 0,00 h 113 W/m 15,2 km/h (3 Bft)
27.05.2011 17:00 10,2 C 90 % 1014,9 hPa 0,0 l/m SW 0,00 h 126 W/m 18,2 km/h (3 Bft)
27.05.2011 18:00 10,6 C 87 % 1015,2 hPa 0,8 l/m W-SW 0,08 h 67 W/m 15,1 km/h (3 Bft)
27.05.2011 19:00 10,1 C 93 % 1016,1 hPa 0,8 l/m S-SW 0,25 h 83 W/m 6,2 km/h (2 Bft)
27.05.2011 20:00 9,6 C 94 % 1016,5 hPa 0,0 l/m SW 0,00 h 27 W/m 9,4 km/h (2 Bft)
27.05.2011 21:00 8,7 C 95 % 1017,1 hPa 0,6 l/m SW 0,00 h 6 W/m 3,9 km/h (1 Bft)
27.05.2011 22:00 8,2 C 97 % 1017,5 hPa 0,0 l/m SW 0,00 h 0 W/m 7,5 km/h (2 Bft)
27.05.2011 23:00 7,9 C 97 % 1017,6 hPa 0,0 l/m S-SW 0,00 h 0 W/m 6,8 km/h (2 Bft)
28.05.2011 00:00 7,4 C 98 % 1017,5 hPa 0,0 l/m SW 0,00 h 0 W/m 5,2 km/h (1 Bft)
28.05.2011 01:00 7,5 C 98 % 1017,8 hPa 0,0 l/m S-SW 0,00 h 0 W/m 6,6 km/h (2 Bft)
28.05.2011 02:00 7,5 C 98 % 1017,6 hPa 0,2 l/m S-SW 0,00 h 0 W/m 3,7 km/h (1 Bft)
28.05.2011 03:00 7,6 C 98 % 1017,6 hPa 0,0 l/m N 0,00 h 0 W/m 0,8 km/h (0 Bft)
28.05.2011 04:00 7,7 C 98 % 1017,6 hPa 0,0 l/m N 0,00 h 0 W/m 0,8 km/h (0 Bft)
28.05.2011 05:00 7,8 C 98 % 1017,5 hPa 0,0 l/m N 0,00 h 8 W/m 0,5 km/h (0 Bft)
28.05.2011 06:00 7,6 C 99 % 1017,8 hPa 0,0 l/m S-SW 0,00 h 21 W/m 2,0 km/h (1 Bft)
28.05.2011 07:00 8,0 C 99 % 1018,3 hPa 0,0 l/m N 0,00 h 46 W/m 2,8 km/h (1 Bft)
28.05.2011 08:00 8,7 C 99 % 1018,9 hPa 0,0 l/m N 0,00 h 94 W/m 1,6 km/h (1 Bft)
28.05.2011 09:00 10,1 C 91 % 1019,0 hPa 0,0 l/m S-SW 0,00 h 205 W/m 2,5 km/h (1 Bft)
28.05.2011 10:00 11,4 C 84 % 1018,8 hPa 0,0 l/m S-SW 0,25 h 435 W/m 5,1 km/h (1 Bft)
28.05.2011 11:00 13,0 C 77 % 1018,2 hPa 0,0 l/m S-SO 0,42 h 512 W/m 6,6 km/h (2 Bft)
28.05.2011 12:00 13,3 C 73 % 1017,8 hPa 0,0 l/m W-SW 0,00 h 236 W/m 7,2 km/h (2 Bft)
28.05.2011 13:00 14,4 C 68 % 1017,4 hPa 0,0 l/m SW 0,25 h 386 W/m 6,4 km/h (2 Bft)
28.05.2011 14:00 14,6 C 68 % 1016,9 hPa 0,0 l/m SW 0,00 h 282 W/m 8,9 km/h (2 Bft)
28.05.2011 15:00 15,7 C 62 % 1016,4 hPa 0,0 l/m N-NO 0,75 h 693 W/m 7,2 km/h (2 Bft)
28.05.2011 16:00 16,5 C 55 % 1015,9 hPa 0,0 l/m W-SW 0,75 h 651 W/m 9,5 km/h (2 Bft)
28.05.2011 17:00 15,7 C 59 % 1015,6 hPa 0,0 l/m W-SW 0,08 h 206 W/m 4,4 km/h (1 Bft)
28.05.2011 18:00 16,2 C 57 % 1015,4 hPa 0,0 l/m SW 0,75 h 309 W/m 5,3 km/h (1 Bft)
28.05.2011 19:00 15,6 C 58 % 1015,1 hPa 0,0 l/m SW 0,50 h 138 W/m 4,1 km/h (1 Bft)
28.05.2011 20:00 13,3 C 77 % 1015,2 hPa 0,0 l/m N 0,08 h 24 W/m 0,3 km/h (0 Bft)
28.05.2011 21:00 11,8 C 79 % 1015,3 hPa 0,0 l/m N 0,00 h 5 W/m 0,5 km/h (0 Bft)
28.05.2011 22:00 10,6 C 84 % 1015,8 hPa 0,0 l/m N 0,00 h 0 W/m 0,0 km/h (0 Bft)
28.05.2011 23:00 9,7 C 89 % 1016,2 hPa 0,0 l/m NW 0,00 h 0 W/m 1,6 km/h (1 Bft)
29.05.2011 00:00 8,8 C 89 % 1016,3 hPa 0,0 l/m N 0,00 h 0 W/m 0,1 km/h (0 Bft)
29.05.2011 01:00 7,8 C 94 % 1016,2 hPa 0,0 l/m N 0,00 h 0 W/m 0,0 km/h (0 Bft)
29.05.2011 02:00 7,0 C 94 % 1016,3 hPa 0,0 l/m N 0,00 h 0 W/m 0,0 km/h (0 Bft)
29.05.2011 03:00 6,5 C 95 % 1016,6 hPa 0,0 l/m N 0,00 h 0 W/m 0,0 km/h (0 Bft)
29.05.2011 04:00 6,1 C 96 % 1016,8 hPa 0,0 l/m N 0,00 h 0 W/m 0,0 km/h (0 Bft)
29.05.2011 05:00 5,8 C 96 % 1017,1 hPa 0,0 l/m N 0,00 h 9 W/m 0,0 km/h (0 Bft)
29.05.2011 06:00 6,0 C 96 % 1017,5 hPa 0,0 l/m N 0,00 h 39 W/m 0,0 km/h (0 Bft)
29.05.2011 07:00 8,2 C 93 % 1018,0 hPa 0,0 l/m N 0,75 h 186 W/m 0,7 km/h (0 Bft)
29.05.2011 08:00 11,4 C 87 % 1018,1 hPa 0,0 l/m S-SO 1,00 h 321 W/m 5,1 km/h (1 Bft)
29.05.2011 09:00 14,6 C 74 % 1018,3 hPa 0,0 l/m S-SO 1,00 h 538 W/m 7,8 km/h (2 Bft)
29.05.2011 10:00 16,8 C 64 % 1018,0 hPa 0,0 l/m SW 0,92 h 676 W/m 13,2 km/h (3 Bft)
29.05.2011 11:00 18,3 C 59 % 1017,6 hPa 0,0 l/m S-SW 1,00 h 788 W/m 14,2 km/h (3 Bft)
29.05.2011 12:00 19,6 C 50 % 1017,4 hPa 0,0 l/m W-SW 1,00 h 892 W/m 14,8 km/h (3 Bft)
29.05.2011 13:00 20,8 C 50 % 1017,1 hPa 0,0 l/m SW 1,00 h 933 W/m 14,9 km/h (3 Bft)
29.05.2011 14:00 21,5 C 47 % 1016,8 hPa 0,0 l/m W-SW 1,00 h 890 W/m 15,2 km/h (3 Bft)
29.05.2011 15:00 22,3 C 44 % 1016,4 hPa 0,0 l/m SW 1,00 h 729 W/m 13,5 km/h (3 Bft)
29.05.2011 16:00 22,7 C 41 % 1016,0 hPa 0,0 l/m SW 1,00 h 673 W/m 10,3 km/h (2 Bft)
29.05.2011 17:00 23,1 C 40 % 1015,6 hPa 0,0 l/m SW 1,00 h 547 W/m 9,4 km/h (2 Bft)
29.05.2011 18:00 23,0 C 38 % 1015,3 hPa 0,0 l/m SW 1,00 h 411 W/m 6,0 km/h (2 Bft)
29.05.2011 19:00 22,5 C 39 % 1015,1 hPa 0,0 l/m O-SO 1,00 h 201 W/m 5,5 km/h (1 Bft)
29.05.2011 20:00 19,1 C 59 % 1015,3 hPa 0,0 l/m N 0,17 h 31 W/m 0,7 km/h (0 Bft)
29.05.2011 21:00 16,0 C 68 % 1015,5 hPa 0,0 l/m N 0,00 h 6 W/m 0,7 km/h (0 Bft)
29.05.2011 22:00 14,5 C 74 % 1015,9 hPa 0,0 l/m N 0,00 h 0 W/m 0,1 km/h (0 Bft)
29.05.2011 23:00 13,2 C 78 % 1015,9 hPa 0,0 l/m N 0,00 h 0 W/m 0,1 km/h (0 Bft)
Min-Datum _ 29.05.11 29.05.11 26.05.11 - - - - 23.05.11
_ Min-Zeit 06:05 18:05 16:10 - - - - 00:05
Minimum _ 5,7 C 36 % 1009,2 hPa - - - - 0,0 km/h (0 Bft)
Max-Datum _ 26.05.11 28.05.11 25.05.11 27.05.11 - 23.05.11 28.05.11 26.05.11
_ Max-Zeit 16:00 05:40 06:15 10:55 - 10:25 11:50 14:30
Maximum _ 27,8 C 99 % 1025,1 hPa 4,4 l/m - 0,08 h 1088 W/m 40,2 km/h
W-SW (6 Bft)
Durchschnitt _ 15,3 C 73 % 1017,9 hPa #17,0 l/m SW #58:15 h 349 W/m 7,7 km/h (2 Bft)